Godreau, Canada
Current Conditions -  °F | °C
As of 9:00 AM on Tuesday 27 Jan 2015 (Local Time) from CYXZ Reporting Station
Clear Clear  
Wind Chill: -8°   Ceiling: Unl
Heat Index: -8°   Visibility: 15mi
Dew Point: -11°   Wind: 2mph
Humidity: 84%   Direction: 300°WNW
Pressure: 30.21"   Gusts: NA
Location:  48.25°N, 84.53°W
Report Text: CYXZ 271400Z 30002KT 15SM SKC M22/M24 A3021 RMK SLP260
Loading
Personal Weather Stations






























Interactive Weather Map New forecast layout! Learn more

10-Day Weather Forecast

Advertisements
Track Severe Weather on mobile